Tiempo atmosférico en la estación meteorológica de Pollença Aeródromo, Illes Balears (2 m.)



Fecha
DESCASC
Temp. máxima en grados centígrados (hora)
DESCASC
Temp. mínima en grados centígrados (hora)
DESCASC
Temp. media en grados centígrados
DESCASC
Racha de viento máxima en m/sg (hora)
DESCASC
Velocidad máxima media en intervalos de 10 minutos(hora)
DESCASC
Precipitaciones diarias en mm
DESCASC
Precipitaciones de 00:00 a 06:00 en mm
DESCASC
Precipitaciones de 06:00 a 12:00 en mm
DESCASC
Precipitaciones de 12:00 a 18:00 en mm
DESCASC
Precipitaciones de 18:00 a 24:00 en mm
DESCASC

Gráficas

Temp. máximas Temp. mínimas Temp. medias Precipitaciones Rachas de viento máximas Velocidades máximas media en intervalos de 10 minutos

Datos horarios

Fecha y hora oficial Temperatura (ºC) Velocidad del viento (km/h) Dirección del viento Racha (km/h) Dirección de racha Precipitación (mm) Presión (hPa) Tendencia (hPa) Humedad (%)
2019-07-19 23:00:00 26.4 12 Sur 17 Sur 0 -- -- 76
2019-07-19 22:00:00 27.2 15 Sur 18 Sur 0 -- -- 70
2019-07-19 21:00:00 27.7 10 Sudeste 20 Nordeste 0 -- -- 67
2019-07-19 20:00:00 28.1 6 Nordeste 24 Norte 0 -- -- 68
2019-07-19 19:00:00 29.2 11 Nordeste 27 Este 0 -- -- 65
2019-07-19 18:00:00 30.4 12 Nordeste 26 Norte 0 -- -- 56
2019-07-19 17:00:00 30.4 13 Nordeste 26 Nordeste 0 -- -- 54
2019-07-19 16:00:00 30.6 11 Nordeste 31 Nordeste 0 -- -- 54
2019-07-19 15:00:00 29.6 16 Nordeste 34 Nordeste 0 -- -- 56
2019-07-19 14:00:00 30.3 8 Norte 31 Norte 0 -- -- 56
2019-07-19 13:00:00 29.8 11 Nordeste 25 Nordeste 0 -- -- 61
2019-07-19 12:00:00 29.9 7 Este 19 Sudeste 0 -- -- 56
2019-07-19 11:00:00 31.1 6 Sur 9 Sudeste 0 -- -- 50
2019-07-19 10:00:00 27.9 3 Sur 6 Sudoeste 0 -- -- 55
2019-07-19 09:00:00 25.3 3 Sur 5 Sur 0 -- -- 71
2019-07-19 08:00:00 21.3 0 Calma 3 Norte 0 -- -- 88
2019-07-19 07:00:00 19.7 0 Calma 4 Norte 0 -- -- 89
2019-07-19 06:00:00 19.4 0 Calma 3 Norte 0 -- -- 86
2019-07-19 05:00:00 19.3 0 Calma 3 Norte 0 -- -- 89
2019-07-19 04:00:00 19.1 0 Calma 4 Norte 0 -- -- 100
2019-07-19 03:00:00 18.6 0 Calma 5 Norte 0 -- -- 100
2019-07-19 02:00:00 21.3 3 Norte 3 Norte 0 -- -- 76
2019-07-19 01:00:00 22.1 0 Calma 3 Nordeste 0 -- -- 70
2019-07-19 00:00:00 23.1 2 Norte 9 Sur 0 -- -- 67
2019-07-18 23:00:00 24.4 3 Sur 6 Sudeste 0 -- -- 71
2019-07-18 22:00:00 25.6 2 Norte 6 Norte 0 -- -- 71
2019-07-18 21:00:00 27.1 0 Calma 13 Este 0 -- -- 65
2019-07-18 20:00:00 27.9 5 Este 23 Este 0 -- -- 65
2019-07-18 19:00:00 28.3 8 Nordeste 24 Este 0 -- -- 63
2019-07-18 18:00:00 29.4 8 Nordeste 24 Este 0 -- -- 59
2019-07-18 17:00:00 30 8 Nordeste 23 Sudeste 0 -- -- 62
2019-07-18 16:00:00 30.6 9 Nordeste 24 Sudeste 0 -- -- 59
2019-07-18 15:00:00 30.2 9 Norte 27 Norte 0 -- -- 60
2019-07-18 14:00:00 30.1 15 Norte 28 Norte 0 -- -- 61
2019-07-18 13:00:00 31.3 8 Norte 21 Norte 0 -- -- 56
2019-07-18 12:00:00 30.2 8 Norte 20 Norte 0 -- -- 56
2019-07-18 11:00:00 29.7 12 Norte 21 Nordeste 0 -- -- 52
2019-07-18 10:00:00 28.6 3 Norte 10 Noroeste 0 -- -- 62
2019-07-18 09:00:00 26.4 4 Sur 12 Sur 0 -- -- 73
2019-07-18 08:00:00 24.5 4 Oeste 12 Sudoeste 0 -- -- 78
2019-07-18 07:00:00 22.9 4 Sudoeste 9 Sur 0 -- -- 79
2019-07-18 06:00:00 23.5 3 Sudoeste 15 Oeste 0 -- -- 79
2019-07-18 05:00:00 24.1 6 Noroeste 23 Oeste 0 -- -- 81
2019-07-18 04:00:00 20 4 Noroeste 11 Oeste 0 -- -- 95
2019-07-18 03:00:00 18.6 0 Calma 4 Nordeste 0 -- -- 100
2019-07-18 02:00:00 22.2 0 Calma 4 Norte 0 -- -- 79
2019-07-18 01:00:00 23.7 2 Norte 9 Sudoeste 0 -- -- 72
2019-07-18 00:00:00 24.9 0 Calma 9 Nordeste 0 -- -- 70
2019-07-17 23:00:00 25.2 5 Este 15 Nordeste 0 -- -- 66
2019-07-17 22:00:00 25.7 6 Nordeste 17 Nordeste 0 -- -- 66
2019-07-17 21:00:00 26.2 12 Nordeste 21 Nordeste 0 -- -- 64
2019-07-17 20:00:00 27 10 Este 23 Norte 0 -- -- 60
2019-07-17 19:00:00 28.1 10 Nordeste 26 Este 0 -- -- 54
2019-07-17 18:00:00 29.5 8 Norte 28 Norte 0 -- -- 54
2019-07-17 17:00:00 30.4 8 Este 22 Este 0 -- -- 52
2019-07-17 16:00:00 28.6 7 Nordeste 22 Sudeste 0 -- -- 58
2019-07-17 15:00:00 30.3 8 Nordeste 27 Nordeste 0 -- -- 56
2019-07-17 14:00:00 30.4 6 Sudeste 22 Sudeste 0 -- -- 54
2019-07-17 13:00:00 30 6 Este 21 Nordeste 0 -- -- 56
2019-07-17 12:00:00 31.6 6 Este 10 Sudeste 0 -- -- 50
2019-07-17 11:00:00 30.4 6 Este 13 Sudeste 0 -- -- 51
2019-07-17 10:00:00 27.8 8 Sur 13 Sur 0 -- -- 68
2019-07-17 09:00:00 27.5 3 Nordeste 16 Norte 0 -- -- 67
2019-07-17 08:00:00 23.5 3 Noroeste 9 Norte 0 -- -- 80
2019-07-17 07:00:00 19.5 2 Norte 4 Nordeste 0 -- -- 83
2019-07-17 06:00:00 19.2 2 Norte 3 Noroeste 0 -- -- 86
2019-07-17 05:00:00 19.5 0 Calma 4 Este 0 -- -- 86
2019-07-17 04:00:00 19 0 Calma 6 Este 0 -- -- 97
2019-07-17 03:00:00 18.1 0 Calma 5 Norte 0 -- -- 100
2019-07-17 02:00:00 21.6 2 Norte 5 Este 0 -- -- 75
2019-07-17 01:00:00 22.7 0 Calma 4 Este 0 -- -- 67
2019-07-17 00:00:00 23.9 0 Calma 9 Sudoeste 0 -- -- 64
2019-07-16 23:00:00 24.7 4 Sudeste 12 Sudoeste 0 -- -- 67
2019-07-16 22:00:00 25.3 4 Sudeste 12 Sudeste 0 -- -- 62
2019-07-16 21:00:00 25.8 6 Nordeste 13 Norte 0 -- -- 55
2019-07-16 20:00:00 27.2 5 Nordeste 17 Este 0 -- -- 54
2019-07-16 19:00:00 28.5 5 Este 22 Sudeste 0 -- -- 48
2019-07-16 18:00:00 29.2 5 Norte 21 Sudeste 0 -- -- 52
2019-07-16 17:00:00 29.6 8 Este 23 Sudeste 0 -- -- 51
2019-07-16 16:00:00 29.9 8 Este 23 Sur 0 -- -- 48
2019-07-16 15:00:00 29.9 9 Este 20 Norte 0 -- -- 49
2019-07-16 14:00:00 30.4 10 Norte 20 Nordeste 0 -- -- 48
2019-07-16 13:00:00 30.1 11 Norte 22 Norte 0 -- -- 49
2019-07-16 12:00:00 29.6 10 Norte 22 Norte 0 -- -- 50
2019-07-16 11:00:00 29.2 10 Nordeste 22 Norte 0 -- -- 50
2019-07-16 10:00:00 28.5 8 Norte 19 Nordeste 0 -- -- 48
2019-07-16 09:00:00 27.2 7 Norte 18 Noroeste 0 -- -- 55
2019-07-16 08:00:00 23.8 3 Norte 13 Norte 0 -- -- 77
2019-07-16 07:00:00 18.9 3 Noroeste 8 Norte 0 -- -- 78
2019-07-16 06:00:00 17.7 3 Norte 5 Norte 0 -- -- 75
2019-07-16 05:00:00 17.9 0 Calma 4 Norte 0 -- -- 79
2019-07-16 04:00:00 17.8 2 Norte 5 Nordeste 0 -- -- 93
2019-07-16 03:00:00 17.1 3 Norte 6 Norte 0 -- -- 100
2019-07-16 02:00:00 20.7 3 Norte 6 Nordeste 0 -- -- 72
2019-07-16 01:00:00 21.8 3 Norte 6 Norte 0 -- -- 69
2019-07-16 00:00:00 23.4 2 Norte 9 Sudeste 0 -- -- 66
2019-07-15 23:00:00 25.2 3 Sudoeste 15 Noroeste 0 -- -- 62
2019-07-15 22:00:00 25.3 9 Norte 28 Nordeste 0 -- -- 60
2019-07-15 21:00:00 25.4 13 Nordeste 31 Nordeste 0 -- -- 62
2019-07-15 20:00:00 26.1 10 Nordeste 29 Este 0 -- -- 59
2019-07-15 19:00:00 27.4 12 Nordeste 37 Nordeste 0 -- -- 55
2019-07-15 18:00:00 28.1 9 Norte 32 Nordeste 0 -- -- 52
2019-07-15 17:00:00 28.4 13 Nordeste 31 Norte 0 -- -- 51
2019-07-15 16:00:00 28.7 9 Nordeste 24 Nordeste 0 -- -- 52
2019-07-15 15:00:00 28.6 14 Sudeste 28 Sudeste 0 -- -- 51
2019-07-15 14:00:00 26.9 9 Nordeste 21 Este 0 -- -- 53
2019-07-15 13:00:00 27.1 14 Este 26 Nordeste 0 -- -- 54
2019-07-15 12:00:00 28.1 6 Norte 20 Norte 0 -- -- 68
2019-07-15 11:00:00 27.3 9 Norte 21 Norte 0 -- -- 68
2019-07-15 10:00:00 26.9 4 Norte 15 Norte 0 -- -- 63
2019-07-15 09:00:00 25.5 4 Sur 7 Sur 0 -- -- 68
2019-07-15 08:00:00 23.6 4 Sudeste 9 Sudeste 0 -- -- 71
2019-07-15 07:00:00 22.3 0 Calma 4 Este 0 -- -- 74
2019-07-15 06:00:00 22.5 0 Calma 12 Norte 0 -- -- 73
2019-07-15 05:00:00 21.9 4 Noroeste 10 Noroeste 0 -- -- 73
2019-07-15 04:00:00 20.7 0 Calma 5 Este 0 -- -- 78
2019-07-15 03:00:00 18.2 3 Este 4 Este 0 -- -- 100
2019-07-15 02:00:00 21 2 Norte 5 Norte 0 -- -- 75
2019-07-15 01:00:00 21.5 0 Calma -- -- 0 -- -- 74
2019-07-15 00:00:00 22.2 0 Calma 5 Norte 0 -- -- 71
2019-07-14 23:00:00 23.2 2 Norte 7 Nordeste 0 -- -- 67
2019-07-14 22:00:00 24.6 2 Nordeste 11 Nordeste 0 -- -- 63
2019-07-14 21:00:00 25.6 6 Norte 19 Norte 0 -- -- 67
2019-07-14 20:00:00 27.4 7 Norte 24 Norte 0 -- -- 59
2019-07-14 19:00:00 27.8 6 Nordeste 22 Norte 0 -- -- 46
2019-07-14 18:00:00 27.2 9 Norte 27 Norte 0 -- -- 55
2019-07-14 17:00:00 27.7 15 Norte 30 Norte 0 -- -- 61
2019-07-14 16:00:00 28.4 14 Nordeste 36 Norte 0 -- -- 59
2019-07-14 15:00:00 30.1 13 Nordeste 33 Nordeste 0 -- -- 49
2019-07-14 14:00:00 29.8 13 Nordeste 35 Norte 0 -- -- 57
2019-07-14 13:00:00 27.9 13 Nordeste 32 Este 0 -- -- 64
2019-07-14 12:00:00 29.1 14 Nordeste 33 Nordeste 0 -- -- 69
2019-07-14 11:00:00 29.6 8 Este 25 Sudeste 0 -- -- 62
2019-07-14 10:00:00 28.6 5 Sudoeste 21 Sudeste 0 -- -- 58
2019-07-14 09:00:00 27 10 Este 17 Este 0 -- -- 68
2019-07-14 08:00:00 25.8 3 Noroeste 20 Sudeste 0 -- -- 63
2019-07-14 07:00:00 24.1 6 Este 13 Este 0 -- -- 67
2019-07-14 06:00:00 25.1 10 Sur 16 Sudoeste 0 -- -- 73
2019-07-14 05:00:00 25.7 5 Sur 17 Sudoeste 0 -- -- 69
2019-07-14 04:00:00 25.5 11 Sudeste 19 Sudeste 0 -- -- 72
2019-07-14 03:00:00 25.1 6 Sur 18 Sudoeste 0 -- -- 71
2019-07-14 02:00:00 25.4 11 Sur 17 Sur 0 -- -- 73
2019-07-14 01:00:00 25.5 10 Sur 17 Sur 0 -- -- 76
2019-07-14 00:00:00 25.8 8 Sur 12 Sur 0 -- -- 82
2019-07-13 23:00:00 26.2 6 Este 16 Nordeste 0 -- -- 70
2019-07-13 22:00:00 26.1 5 Nordeste 18 Nordeste 0 -- -- 74
2019-07-13 21:00:00 26.4 10 Nordeste 23 Este 0 -- -- 70
2019-07-13 20:00:00 27.5 5 Nordeste 20 Nordeste 0 -- -- 65
2019-07-13 19:00:00 28.6 8 Nordeste 28 Nordeste 0 -- -- 58
2019-07-13 18:00:00 28.2 11 Nordeste 28 Nordeste 0 -- -- 60
2019-07-13 17:00:00 29.5 9 Nordeste 22 Norte 0 -- -- 58
2019-07-13 16:00:00 30.4 6 Noroeste 28 Este 0 -- -- 55
2019-07-13 15:00:00 30.5 10 Nordeste 33 Nordeste 0 -- -- 57
2019-07-13 14:00:00 29.5 13 Norte 28 Norte 0 -- -- 61
2019-07-13 13:00:00 29.7 5 Norte 22 Sudeste 0 -- -- 62
2019-07-13 12:00:00 29.9 4 Sudeste 24 Nordeste 0 -- -- 57
2019-07-13 11:00:00 29.6 7 Norte 21 Sudeste 0 -- -- 48
2019-07-13 10:00:00 30 8 Sur 16 Sudeste 0 -- -- 50
2019-07-13 09:00:00 28.2 4 Sudeste 9 Sudeste 0 -- -- 72
2019-07-13 08:00:00 24.9 5 Norte 11 Norte 0 -- -- 83
2019-07-13 07:00:00 22 3 Norte 7 Norte 0 -- -- 87
2019-07-13 06:00:00 22.1 2 Nordeste 5 Este 0 -- -- 83
2019-07-13 05:00:00 21.5 0 Calma 5 Nordeste 0 -- -- 84
2019-07-13 04:00:00 20.5 0 Calma 3 Norte 0 -- -- 99
2019-07-13 03:00:00 21 0 Calma 4 Noroeste 0 -- -- 99
2019-07-13 02:00:00 23.2 3 Norte 3 Norte 0 -- -- 84
2019-07-13 01:00:00 23.8 0 Calma 4 Este 0 -- -- 79
2019-07-13 00:00:00 24.3 2 Nordeste 5 Este 0 -- -- 75
2019-07-12 23:00:00 25 2 Norte 3 Norte 0 -- -- 72
2019-07-12 22:00:00 26.7 0 Calma 21 Este 0 -- -- 66
2019-07-12 21:00:00 27 12 Este 25 Este 0 -- -- 72
2019-07-12 20:00:00 28.2 12 Este 26 Este 0 -- -- 63
2019-07-12 19:00:00 30.7 10 Nordeste 23 Este 0 -- -- 53
2019-07-12 18:00:00 30.9 10 Nordeste 24 Este 0 -- -- 53
2019-07-12 17:00:00 31.5 6 Nordeste 23 Este 0 -- -- 50
2019-07-12 16:00:00 31.3 12 Este 32 Este 0 -- -- 57
2019-07-12 15:00:00 32.7 8 Nordeste 26 Norte 0 -- -- 46
2019-07-12 14:00:00 32.3 14 Norte 26 Norte 0 -- -- 44
2019-07-12 13:00:00 32.6 10 Este 19 Este 0 -- -- 46
2019-07-12 12:00:00 33.5 7 Este 14 Este 0 -- -- 42
2019-07-12 11:00:00 32.9 8 Sudeste 10 Sudeste 0 -- -- 46
2019-07-12 10:00:00 29.6 4 Sur 9 Sur 0 -- -- 65
2019-07-12 09:00:00 26.5 4 Sudoeste 9 Sur 0 -- -- 75
2019-07-12 08:00:00 22.7 2 Sudeste 5 Sudeste 0 -- -- 88
2019-07-12 07:00:00 20.5 0 Calma 3 Norte 0 -- -- 89
2019-07-12 06:00:00 20.8 0 Calma 6 Norte 0 -- -- 89
2019-07-12 05:00:00 20.9 3 Norte 6 Norte 0 -- -- 88
2019-07-12 04:00:00 21.4 0 Calma 5 Nordeste 0 -- -- 86
2019-07-12 03:00:00 21.7 2 Noroeste 4 Norte 0 -- -- 85
2019-07-12 02:00:00 22.2 2 Norte 5 Nordeste 0 -- -- 84
2019-07-12 01:00:00 22.8 2 Norte 5 Este 0 -- -- 80
2019-07-12 00:00:00 23.4 0 Calma 4 Sur 0 -- -- 75
2019-07-11 23:00:00 24.4 2 Norte 4 Nordeste 0 -- -- 69
2019-07-11 22:00:00 26.2 3 Nordeste 17 Nordeste 0 -- -- 65
2019-07-11 21:00:00 26.7 8 Nordeste 20 Este 0 -- -- 71
2019-07-11 20:00:00 27.5 11 Este 21 Nordeste 0 -- -- 68
2019-07-11 19:00:00 29.3 7 Nordeste 24 Este 0 -- -- 65
2019-07-11 18:00:00 31.5 7 Nordeste 23 Noroeste 0 -- -- 49
2019-07-11 17:00:00 32.1 13 Norte 24 Norte 0 -- -- 48
2019-07-11 16:00:00 33.2 5 Noroeste 21 Norte 0 -- -- 39
2019-07-11 15:00:00 32 9 Noroeste 29 Noroeste 0 -- -- 39
2019-07-11 14:00:00 32.1 10 Norte 26 Norte 0 -- -- 39
2019-07-11 13:00:00 32.3 4 Noroeste 22 Norte 0 -- -- 43
2019-07-11 12:00:00 31.1 10 Nordeste 20 Norte 0 -- -- 54
2019-07-11 11:00:00 29.6 6 Norte 15 Nordeste 0 -- -- 61
2019-07-11 10:00:00 28.7 5 Sudeste 8 Sudeste 0 -- -- 69
2019-07-11 09:00:00 26 4 Sur 6 Sudoeste 0 -- -- 75
2019-07-11 08:00:00 23.9 3 Sur 9 Sudeste 0 -- -- 81
2019-07-11 07:00:00 23.7 3 Sudoeste 11 Noroeste 0 -- -- 84
2019-07-11 06:00:00 21.3 2 Sudoeste 5 Sudeste 0 -- -- 83
2019-07-11 05:00:00 21.6 3 Norte 8 Sudoeste 0 -- -- 83
2019-07-11 04:00:00 22.2 2 Sur 8 Este 0 -- -- 81
2019-07-11 03:00:00 22.3 2 Nordeste 5 Norte 0 -- -- 82
2019-07-11 02:00:00 22.6 0 Calma 6 Este 0 -- -- 80
2019-07-11 01:00:00 22.9 0 Calma 4 Norte 0 -- -- 73
2019-07-11 00:00:00 23.1 4 Norte 5 Norte 0 -- -- 70
2019-07-10 23:00:00 24 2 Noroeste 3 Oeste 0 -- -- 65
2019-07-10 22:00:00 25.5 2 Norte 13 Este 0 -- -- 66
2019-07-10 21:00:00 26.3 4 Nordeste 19 Este 0 -- -- 64
2019-07-10 20:00:00 27.9 12 Este 30 Este 0 -- -- 64
2019-07-10 19:00:00 31.4 5 Norte 16 Nordeste 0 -- -- 40
2019-07-10 18:00:00 31.1 6 Norte 22 Norte 0 -- -- 40
2019-07-10 17:00:00 30.9 11 Noroeste 26 Norte 0 -- -- 41
2019-07-10 16:00:00 32.4 8 Norte 23 Norte 0 -- -- 39
2019-07-10 15:00:00 31.8 7 Noroeste 24 Norte 0 -- -- 43
2019-07-10 14:00:00 30.2 9 Noroeste 27 Norte 0 -- -- 50
2019-07-10 13:00:00 30.5 8 Noroeste 21 Norte 0 -- -- 47
2019-07-10 12:00:00 30 7 Noroeste 23 Oeste 0 -- -- 47
2019-07-10 11:00:00 29.3 8 Norte 17 Norte 0 -- -- 55
2019-07-10 10:00:00 29 7 Sudeste 12 Sudeste 0 -- -- 61
2019-07-10 09:00:00 26.7 4 Sur 8 Sur 0 -- -- 69
2019-07-10 08:00:00 22.4 0 Calma 3 Sudeste 0 -- -- 89
2019-07-10 07:00:00 20.7 0 Calma 4 Nordeste 0 -- -- 89
2019-07-10 06:00:00 20.9 0 Calma 4 Norte 0 -- -- 87
2019-07-10 05:00:00 21.9 2 Noroeste 5 Norte 0 -- -- 85
2019-07-10 04:00:00 23 0 Calma 9 Norte 0 -- -- 82
2019-07-10 03:00:00 23.4 3 Noroeste 11 Norte 0 -- -- 80
2019-07-10 02:00:00 23.9 5 Norte 15 Norte 0 -- -- 76
2019-07-10 01:00:00 23.7 5 Norte 12 Norte 0 -- -- 80
2019-07-10 00:00:00 24.1 6 Norte 15 Norte 0 -- -- 83
2019-07-09 23:00:00 24.2 4 Norte 19 Norte 0 -- -- 80
2019-07-09 22:00:00 24.7 6 Norte 24 Norte 0 -- -- 83
2019-07-09 21:00:00 25.3 12 Norte 35 Norte 0 -- -- 82
2019-07-09 20:00:00 25.8 8 Norte 33 Norte 0 -- -- 77
2019-07-09 19:00:00 26.6 14 Noroeste 44 Norte 0 -- -- 73
2019-07-09 18:00:00 28.4 14 Norte 44 Norte 0 -- -- 64
2019-07-09 17:00:00 29.1 13 Noroeste 35 Oeste 0 -- -- 60
2019-07-09 16:00:00 30.2 12 Noroeste 35 Norte 0 -- -- 55
2019-07-09 15:00:00 30.9 13 Noroeste 34 Norte 0 -- -- 54
2019-07-09 14:00:00 30.6 13 Norte 30 Noroeste 0 -- -- 57
2019-07-09 13:00:00 30.6 10 Norte 25 Norte 0 -- -- 56
2019-07-09 12:00:00 31.3 10 Norte 19 Norte 0 -- -- 55
2019-07-09 11:00:00 30.3 5 Noroeste 17 Norte 0 -- -- 61
2019-07-09 10:00:00 28.9 13 Sur 31 Sudoeste 0 -- -- 74
2019-07-09 09:00:00 27.7 18 Sudoeste 27 Sudoeste 0 -- -- 79
2019-07-09 08:00:00 26.7 13 Sur 28 Sur 0 -- -- 81
2019-07-09 07:00:00 27.1 19 Sur 28 Sur 0 -- -- 78
2019-07-09 06:00:00 27.2 5 Oeste 43 Sur 0 -- -- 70
2019-07-09 05:00:00 27.5 22 Sur 41 Sur 0 -- -- 70
2019-07-09 04:00:00 28 27 Sudeste 59 Este 0.2 -- -- 66
2019-07-09 03:00:00 27.2 21 Sudeste 63 Sur 0 -- -- 59
2019-07-09 02:00:00 27.1 5 Noroeste 16 Norte 0 -- -- 65
2019-07-09 01:00:00 26.7 3 Noroeste 13 Nordeste 0 -- -- 68
2019-07-09 00:00:00 26.5 3 Norte 12 Nordeste 0 -- -- 71
2019-07-08 23:00:00 26.7 6 Oeste 35 Nordeste 0 -- -- 78
2019-07-08 22:00:00 27.4 8 Nordeste 25 Nordeste 0 -- -- 59
2019-07-08 21:00:00 25.6 11 Norte 42 Nordeste 1.4 -- -- 70
2019-07-08 20:00:00 28.3 9 Noroeste 26 Noroeste 0 -- -- 69
2019-07-08 19:00:00 29.4 11 Nordeste 33 Este 0 -- -- 51
2019-07-08 18:00:00 29 15 Norte 29 Norte 1 -- -- 63
2019-07-08 17:00:00 30.5 5 Sudoeste 29 Este 0 -- -- 59
2019-07-08 16:00:00 33.2 13 Este 28 Sudeste 0 -- -- 49
2019-07-08 15:00:00 32.2 16 Norte 31 Norte 0 -- -- 63
2019-07-08 14:00:00 34.3 10 Noroeste 23 Este 0 -- -- 41
2019-07-08 13:00:00 37.6 10 Este 17 Este 0 -- -- 36
2019-07-08 12:00:00 35 4 Sudeste 17 Sudeste 0 -- -- 40
2019-07-08 11:00:00 32.2 14 Sudeste 22 Sur 0 -- -- 54
2019-07-08 10:00:00 32.5 10 Sur 20 Sur 0 -- -- 51
2019-07-08 09:00:00 29.9 0 Calma 4 Norte 0 -- -- 52
2019-07-08 08:00:00 27.5 3 Norte 6 Norte 0 -- -- 62
2019-07-08 07:00:00 27.8 0 Calma 12 Sudoeste 0 -- -- 62
2019-07-08 06:00:00 29.5 5 Nordeste 22 Este 0 -- -- 45
2019-07-08 05:00:00 28.7 3 Este 21 Norte 0 -- -- 65
2019-07-08 04:00:00 29.3 12 Norte 28 Norte 0 -- -- 49
2019-07-08 03:00:00 30 9 Norte 23 Norte 0 -- -- 48
2019-07-08 02:00:00 27.7 6 Norte 18 Norte 0 -- -- 66
2019-07-08 01:00:00 28.2 17 Sur 48 Sudoeste 0 -- -- 78
2019-07-08 00:00:00 28.1 4 Norte 21 Noroeste 0 -- -- 77
2019-07-07 23:00:00 30.1 10 Norte 27 Norte 0 -- -- 64
2019-07-07 22:00:00 29.3 4 Norte 8 Norte 0 -- -- 62
2019-07-07 21:00:00 29.9 2 Norte 9 Sudoeste 0 -- -- 63
2019-07-07 20:00:00 31.8 5 Este 19 Este 0 -- -- 57
2019-07-07 19:00:00 32.3 12 Este 23 Sudeste 0 -- -- 49
2019-07-07 18:00:00 32.1 11 Este 26 Este 0 -- -- 61
2019-07-07 17:00:00 32.1 8 Este 34 Este 0 -- -- 56
2019-07-07 16:00:00 31.7 15 Este 33 Este 0 -- -- 59
2019-07-07 15:00:00 36.5 4 Oeste 27 Norte 0 -- -- 40
2019-07-07 14:00:00 35.6 9 Noroeste 32 Este 0 -- -- 40
2019-07-07 13:00:00 36.2 17 Este 33 Este 0 -- -- 43
2019-07-07 12:00:00 35.2 5 Noroeste 15 Sur 0 -- -- 33
2019-07-07 11:00:00 34.9 5 Sur 10 Sudoeste 0 -- -- 48
2019-07-07 10:00:00 31.8 0 Calma 6 Sudeste 0 -- -- 59
2019-07-07 09:00:00 30.2 0 Calma 14 Norte 0 -- -- 66
2019-07-07 08:00:00 28.7 7 Norte 29 Norte 0 -- -- 65
2019-07-07 07:00:00 28.1 10 Norte 24 Norte 0 -- -- 71
2019-07-07 06:00:00 32.3 6 Este 23 Este 0 -- -- 46
2019-07-07 05:00:00 30.4 6 Nordeste 19 Norte 0 -- -- 50
2019-07-07 04:00:00 29 9 Norte 28 Norte 0 -- -- 63
2019-07-07 03:00:00 28.4 5 Este 20 Sur 0 -- -- 60
2019-07-07 02:00:00 28.5 2 Sudoeste 33 Sur 0 -- -- 61
2019-07-07 01:00:00 26.9 9 Sur 27 Sur 0 -- -- 85
2019-07-07 00:00:00 26.7 5 Nordeste 22 Nordeste 0 -- -- 86
2019-07-06 23:00:00 27.4 5 Este 17 Sur 0 -- -- 80
2019-07-06 22:00:00 27.4 7 Norte 24 Norte 0 -- -- 82
2019-07-06 21:00:00 29.3 0 Calma 8 Sudeste 0 -- -- 73
2019-07-06 20:00:00 30.7 4 Sudeste 9 Sudeste 0 -- -- 68
2019-07-06 19:00:00 31.7 6 Sur 18 Norte 0 -- -- 67
2019-07-06 18:00:00 31.1 11 Norte 25 Norte 0 -- -- 69
2019-07-06 17:00:00 30.6 14 Norte 29 Norte 0 -- -- 69
2019-07-06 16:00:00 30.7 16 Norte 30 Norte 0 -- -- 69
2019-07-06 15:00:00 31.4 9 Nordeste 27 Este 0 -- -- 65
2019-07-06 14:00:00 30.6 10 Este 25 Este 0 -- -- 69
2019-07-06 13:00:00 32.1 9 Nordeste 20 Norte 0 -- -- 62
2019-07-06 12:00:00 31.9 8 Norte 19 Norte 0 -- -- 64
2019-07-06 11:00:00 31 4 Sur 12 Sudeste 0 -- -- 64
2019-07-06 10:00:00 29.6 8 Sudeste 12 Sudeste 0 -- -- 71
2019-07-06 09:00:00 27.2 7 Sur 12 Sudeste 0 -- -- 80
2019-07-06 08:00:00 25.2 5 Sudoeste 13 Sur 0 -- -- 88
2019-07-06 07:00:00 24.8 6 Sur 26 Sudoeste 0 -- -- 90
2019-07-06 06:00:00 25 8 Sur 15 Sur 0 -- -- 92
2019-07-06 05:00:00 25 3 Norte 15 Norte 0 -- -- 89
2019-07-06 04:00:00 25 7 Norte 15 Norte 0 -- -- 89
2019-07-06 03:00:00 24.9 0 Calma 10 Sudeste 0 -- -- 85
2019-07-06 02:00:00 25.5 2 Este 9 Norte 0 -- -- 81
2019-07-06 01:00:00 26.6 3 Norte 19 Sur 0 -- -- 69
2019-07-06 00:00:00 26.8 8 Sudeste 16 Sudeste 0 -- -- 79
2019-07-05 23:00:00 27.4 12 Sudeste 19 Sur 0 -- -- 76
2019-07-05 22:00:00 28.2 11 Sudeste 19 Sudeste 0 -- -- 70
2019-07-05 21:00:00 29.6 6 Sudeste 14 Este 0 -- -- 58
2019-07-05 20:00:00 30.1 6 Norte 19 Norte 0 -- -- 59
2019-07-05 19:00:00 32 7 Norte 16 Este 0 -- -- 59
2019-07-05 18:00:00 32.8 9 Nordeste 19 Nordeste 0 -- -- 55
2019-07-05 17:00:00 32.3 9 Norte 27 Norte 0 -- -- 57
2019-07-05 16:00:00 32.4 8 Norte 24 Nordeste 0 -- -- 60
2019-07-05 15:00:00 31.2 13 Este 27 Este 0 -- -- 61
2019-07-05 14:00:00 31.2 12 Este 27 Nordeste 0 -- -- 62
2019-07-05 13:00:00 30.4 13 Este 26 Nordeste 0 -- -- 68
2019-07-05 12:00:00 29.7 13 Este 28 Este 0 -- -- 69
2019-07-05 11:00:00 30.4 7 Este 14 Este 0 -- -- 68
2019-07-05 10:00:00 28.3 4 Sur 9 Sur 0 -- -- 76
2019-07-05 09:00:00 26.6 5 Sur 6 Sudoeste 0 -- -- 82
2019-07-05 08:00:00 24.8 0 Calma 6 Norte 0 -- -- 87
2019-07-05 07:00:00 23.9 3 Este 12 Norte 0 -- -- 89
2019-07-05 06:00:00 24.5 4 Norte 17 Norte 0 -- -- 92
2019-07-05 05:00:00 23.8 5 Norte 10 Norte 0 -- -- 89
2019-07-05 04:00:00 23.5 4 Norte 11 Norte 0 -- -- 85
2019-07-05 03:00:00 22.6 5 Norte 8 Norte 0 -- -- 84
2019-07-05 02:00:00 23.4 0 Calma 10 Sudoeste 0 -- -- 86
2019-07-05 01:00:00 24.8 6 Sudoeste 10 Sudoeste 0 -- -- 86
2019-07-05 00:00:00 26 4 Sur 12 Sudeste 0 -- -- 83
2019-07-04 23:00:00 26.3 9 Sur 14 Nordeste 0 -- -- 79
2019-07-04 22:00:00 26.2 6 Nordeste 21 Este 0 -- -- 81
2019-07-04 21:00:00 27 10 Nordeste 23 Este 0 -- -- 72
2019-07-04 20:00:00 28.3 8 Nordeste 25 Este 0 -- -- 63
2019-07-04 19:00:00 29.1 10 Nordeste 29 Norte 0 -- -- 65
2019-07-04 18:00:00 30.1 7 Nordeste 28 Este 0 -- -- 63
2019-07-04 17:00:00 30.3 15 Este 33 Norte 0 -- -- 59
2019-07-04 16:00:00 30.9 9 Este 26 Este 0 -- -- 62
2019-07-04 15:00:00 31.2 6 Este 21 Este 0 -- -- 55
2019-07-04 14:00:00 31.1 10 Este 21 Sudeste 0 -- -- 59
2019-07-04 13:00:00 31.8 8 Sudeste 19 Este 0 -- -- 50
2019-07-04 12:00:00 31.4 6 Este 13 Este 0 -- -- 53
2019-07-04 11:00:00 30.3 5 Este 18 Sudeste 0 -- -- 60
2019-07-04 10:00:00 28.1 10 Este 19 Sudeste 0 -- -- 78
2019-07-04 09:00:00 27.4 4 Este 11 Sudeste 0 -- -- 79
2019-07-04 08:00:00 22.8 0 Calma 3 Norte 0 -- -- 89
2019-07-04 07:00:00 20.8 2 Norte 4 Norte 0 -- -- 87
2019-07-04 06:00:00 20.5 3 Este 8 Este 0 -- -- 87
2019-07-04 05:00:00 20.4 0 Calma 4 Norte 0 -- -- 85
2019-07-04 04:00:00 21.3 3 Norte 4 Norte 0 -- -- 88
2019-07-04 03:00:00 21.7 3 Norte 3 Norte 0 -- -- 85
2019-07-04 02:00:00 22.3 0 Calma 4 Norte 0 -- -- 80
2019-07-04 01:00:00 23.4 2 Norte 4 Norte 0 -- -- 73
2019-07-04 00:00:00 24.9 2 Norte 10 Nordeste 0 -- -- 70
2019-07-03 23:00:00 25.8 6 Norte 14 Este 0 -- -- 75
2019-07-03 22:00:00 26.4 6 Nordeste 15 Nordeste 0 -- -- 72
2019-07-03 21:00:00 27.1 8 Nordeste 23 Nordeste 0 -- -- 66
2019-07-03 20:00:00 28.8 10 Nordeste 22 Este 0 -- -- 57
2019-07-03 19:00:00 30.3 10 Nordeste 23 Este 0 -- -- 45
2019-07-03 18:00:00 30.2 10 Nordeste 24 Este 0 -- -- 58
2019-07-03 17:00:00 30.5 9 Nordeste 26 Nordeste 0 -- -- 64
2019-07-03 16:00:00 31.5 9 Este 23 Este 0 -- -- 57
2019-07-03 15:00:00 32.2 9 Este 25 Nordeste 0 -- -- 41
2019-07-03 14:00:00 32.2 10 Nordeste 25 Este 0 -- -- 34
2019-07-03 13:00:00 31.5 8 Este 21 Este 0 -- -- 44
2019-07-03 12:00:00 32.2 9 Este 17 Este 0 -- -- 46
2019-07-03 11:00:00 30.9 9 Este 17 Este 0 -- -- 49
2019-07-03 10:00:00 29.9 6 Sudeste 12 Sudeste 0 -- -- 49
2019-07-03 09:00:00 26.3 5 Sur 6 Sur 0 -- -- 62
2019-07-03 08:00:00 20.9 0 Calma 2 Norte 0 -- -- 76
2019-07-03 07:00:00 19.2 0 Calma 3 Norte 0 -- -- 79
2019-07-03 06:00:00 19.7 2 Noroeste 3 Noroeste 0 -- -- 83
2019-07-03 05:00:00 20.2 2 Norte 3 Norte 0 -- -- 86
2019-07-03 04:00:00 20.9 0 Calma 2 Norte 0 -- -- 87
2019-07-03 03:00:00 21.4 0 Calma 3 Norte 0 -- -- 86
2019-07-03 02:00:00 21.9 0 Calma 3 Norte 0 -- -- 81
2019-07-03 01:00:00 22.7 0 Calma 8 Este 0 -- -- 75
2019-07-03 00:00:00 23.2 2 Norte 3 Norte 0 -- -- 71
2019-07-02 23:00:00 24.7 0 Calma 9 Este 0 -- -- 65
2019-07-02 22:00:00 26.4 6 Este 17 Este 0 -- -- 64
2019-07-02 21:00:00 27.1 9 Este 23 Este 0 -- -- 58
2019-07-02 20:00:00 28.4 6 Nordeste 27 Este 0 -- -- 57
2019-07-02 19:00:00 29.7 12 Este 24 Este 0 -- -- 55
2019-07-02 18:00:00 30.6 12 Este 25 Este 0 -- -- 57
2019-07-02 17:00:00 31.7 9 Este 24 Este 0 -- -- 43
2019-07-02 16:00:00 31.6 11 Este 24 Este 0 -- -- 48
2019-07-02 15:00:00 32.2 9 Nordeste 21 Este 0 -- -- 38
2019-07-02 14:00:00 31.2 8 Este 21 Sudeste 0 -- -- 45
2019-07-02 13:00:00 32.1 6 Este 19 Nordeste 0 -- -- 40
2019-07-02 12:00:00 31.6 6 Este 18 Sudeste 0 -- -- 35
2019-07-02 11:00:00 31.1 9 Este 18 Este 0 -- -- 40
2019-07-02 10:00:00 29.4 7 Sudeste 18 Sudeste 0 -- -- 45
2019-07-02 09:00:00 26.7 4 Sur 9 Este 0 -- -- 71
2019-07-02 08:00:00 21.9 0 Calma 3 Norte 0 -- -- 74
2019-07-02 07:00:00 19.8 0 Calma 3 Norte 0 -- -- 72
2019-07-02 06:00:00 19.9 0 Calma 3 Noroeste 0 -- -- 70
2019-07-02 05:00:00 20.1 0 Calma 3 Norte 0 -- -- 68
2019-07-02 04:00:00 20.6 2 Norte 4 Norte 0 -- -- 65
2019-07-02 03:00:00 21.1 2 Norte 5 Norte 0 -- -- 66
2019-07-02 02:00:00 21.8 3 Norte 4 Norte 0 -- -- 70
2019-07-02 01:00:00 22.7 2 Nordeste 5 Norte 0 -- -- 67
2019-07-02 00:00:00 23.9 0 Calma 4 Sudeste 0 -- -- 63
2019-07-01 23:00:00 25.9 2 Norte 15 Sudeste 0 -- -- 57
2019-07-01 22:00:00 28.4 10 Sudeste 17 Sudeste 0 -- -- 49
2019-07-01 21:00:00 29.4 9 Sudeste 19 Este 0 -- -- 49
2019-07-01 20:00:00 30.8 8 Este 19 Este 0 -- -- 51
2019-07-01 19:00:00 31.7 11 Este 23 Este 0 -- -- 52
2019-07-01 18:00:00 32.3 9 Este 26 Nordeste 0 -- -- 51
2019-07-01 17:00:00 31.3 15 Nordeste 28 Este 0 -- -- 60
2019-07-01 16:00:00 31.7 12 Nordeste 30 Nordeste 0 -- -- 56
2019-07-01 15:00:00 32.7 13 Este 26 Este 0 -- -- 55
2019-07-01 14:00:00 32.5 13 Nordeste 30 Este 0 -- -- 53
2019-07-01 13:00:00 31.4 19 Este 33 Este 0 -- -- 56
2019-07-01 12:00:00 31.4 12 Este 25 Este 0 -- -- 57
2019-07-01 11:00:00 32.3 9 Este 18 Este 0 -- -- 48
2019-07-01 10:00:00 30.3 8 Sudeste 13 Sudeste 0 -- -- 47
2019-07-01 09:00:00 26.3 3 Sur 5 Sudoeste 0 -- -- 67
2019-07-01 08:00:00 21.3 0 Calma 3 Noroeste 0 -- -- 78
2019-07-01 07:00:00 19.5 0 Calma 5 Norte 0 -- -- 75
2019-07-01 06:00:00 19.6 2 Oeste 5 Norte 0 -- -- 74
2019-07-01 05:00:00 20.3 0 Calma 6 Sudoeste 0 -- -- 74
2019-07-01 04:00:00 20.6 4 Norte 6 Norte 0 -- -- 82
2019-07-01 03:00:00 21 0 Calma 3 Norte 0 -- -- 84
2019-07-01 02:00:00 21.7 0 Calma 5 Norte 0 -- -- 80
2019-07-01 01:00:00 22.5 2 Noroeste 5 Nordeste 0 -- -- 80
2019-07-01 00:00:00 23.3 3 Norte -- -- 0 -- -- 82
2019-06-30 23:00:00 24.3 2 Norte 4 Nordeste 0 -- -- 83
2019-06-30 22:00:00 25.6 0 Calma 13 Este 0 -- -- 80
2019-06-30 21:00:00 26.3 8 Este 24 Este 0 -- -- 80
2019-06-30 20:00:00 27.5 13 Este 27 Este 0 -- -- 72
2019-06-30 19:00:00 28.9 14 Este 23 Este 0 -- -- 68
2019-06-30 18:00:00 30.2 7 Este 24 Este 0 -- -- 68
2019-06-30 17:00:00 29.9 10 Este 26 Este 0 -- -- 68
2019-06-30 16:00:00 29.7 12 Este 26 Sudeste 0 -- -- 68
2019-06-30 15:00:00 30.8 12 Este 22 Este 0 -- -- 62
2019-06-30 14:00:00 30.2 9 Este 22 Norte 0 -- -- 65
2019-06-30 13:00:00 28.4 13 Norte 26 Norte 0 -- -- 69
2019-06-30 12:00:00 29.4 10 Norte 22 Norte 0 -- -- 66
2019-06-30 11:00:00 29.2 6 Norte 18 Norte 0 -- -- 67
2019-06-30 10:00:00 27.9 9 Norte 19 Norte 0 -- -- 72
2019-06-30 09:00:00 26.7 9 Norte 18 Noroeste 0 -- -- 81
2019-06-30 08:00:00 23.3 3 Nordeste 10 Norte 0 -- -- 80
2019-06-30 07:00:00 19.5 0 Calma 4 Norte 0 -- -- 82
2019-06-30 06:00:00 19.7 0 Calma 4 Norte 0 -- -- 81
2019-06-30 05:00:00 20 0 Calma 4 Norte 0 -- -- 80
2019-06-30 04:00:00 20.7 2 Norte 4 Norte 0 -- -- 82
2019-06-30 03:00:00 21.6 3 Norte 4 Norte 0 -- -- 87
2019-06-30 02:00:00 22.1 0 Calma 4 Norte 0 -- -- 84
2019-06-30 01:00:00 22.8 0 Calma 2 Norte 0 -- -- 81
2019-06-30 00:00:00 23.8 0 Calma 5 Este 0 -- -- 77
2019-06-29 23:00:00 25 0 Calma 4 Este 0 -- -- 69
2019-06-29 22:00:00 26.7 2 Norte 3 Noroeste 0 -- -- 58
2019-06-29 21:00:00 29.8 0 Calma 5 Sudeste 0 -- -- 59
2019-06-29 20:00:00 32 4 Este 11 Este 0 -- -- 48
2019-06-29 19:00:00 34 5 Sur 13 Norte 0 -- -- 50
2019-06-29 18:00:00 35 9 Norte 22 Norte 0 -- -- 32
2019-06-29 17:00:00 34.8 10 Norte 24 Norte 0 -- -- 35
2019-06-29 16:00:00 34 13 Norte 26 Nordeste 0 -- -- 41
2019-06-29 15:00:00 34.1 12 Norte 26 Norte 0 -- -- 38
2019-06-29 14:00:00 34 15 Norte 27 Nordeste 0 -- -- 42
2019-06-29 13:00:00 33.9 14 Norte 27 Norte 0 -- -- 39
2019-06-29 12:00:00 33.7 10 Norte 20 Norte 0 -- -- 39
2019-06-29 11:00:00 31.3 6 Sur 10 Sudeste 0 -- -- 41
2019-06-29 10:00:00 28 2 Sur 5 Sur 0 -- -- 63
2019-06-29 09:00:00 25.7 2 Sur 5 Sur 0 -- -- 68
2019-06-29 08:00:00 21.5 0 Calma 3 Sudeste 0 -- -- 83
2019-06-29 07:00:00 19.8 0 Calma 4 Norte 0 -- -- 83
2019-06-29 06:00:00 20 2 Sudeste 4 Norte 0 -- -- 80
2019-06-29 05:00:00 20.3 0 Calma 6 Norte 0 -- -- 79
2019-06-29 04:00:00 20.8 0 Calma 5 Norte 0 -- -- 80
2019-06-29 03:00:00 21.4 3 Norte 5 Sudeste 0 -- -- 79
2019-06-29 02:00:00 22.1 3 Oeste 5 Sur 0 -- -- 74
2019-06-29 01:00:00 22.4 2 Noroeste 4 Norte 0 -- -- 73
2019-06-29 00:00:00 23 0 Calma 4 Norte 0 -- -- 70
2019-06-28 23:00:00 24.4 0 Calma 4 Norte 0 -- -- 65
2019-06-28 22:00:00 26 2 Norte 4 Norte 0 -- -- 57
2019-06-28 21:00:00 28.6 5 Este 17 Este 0 -- -- 49
2019-06-28 20:00:00 30 8 Este 26 Este 0 -- -- 51
2019-06-28 19:00:00 34.5 5 Nordeste 26 Norte 0 -- -- 41
2019-06-28 18:00:00 34.6 12 Norte 24 Norte 0 -- -- 35
2019-06-28 17:00:00 34.3 15 Norte 26 Nordeste 0 -- -- 36
2019-06-28 16:00:00 35.8 10 Norte 24 Noroeste 0 -- -- 33
2019-06-28 15:00:00 35 9 Norte 23 Noroeste 0 -- -- 31
2019-06-28 14:00:00 34.8 11 Norte 30 Norte 0 -- -- 32
2019-06-28 13:00:00 -- -- -- -- -- -- -- -- --
2019-06-28 12:00:00 34 6 Sur 13 Sudeste 0 -- -- 43
2019-06-28 11:00:00 31.2 5 Sudeste 10 Este 0 -- -- 43
2019-06-28 10:00:00 27.8 3 Sur 4 Sur 0 -- -- 57
2019-06-28 09:00:00 25.6 3 Sur 5 Sudeste 0 -- -- 67
2019-06-28 08:00:00 20.1 0 Calma 3 Noroeste 0 -- -- 80
2019-06-28 07:00:00 17.9 0 Calma 3 Norte 0 -- -- 83
2019-06-28 06:00:00 18.1 2 Noroeste 4 Norte 0 -- -- 82
2019-06-28 05:00:00 18.6 0 Calma 4 Noroeste 0 -- -- 82
2019-06-28 04:00:00 19.1 0 Calma 4 Norte 0 -- -- 81
2019-06-28 03:00:00 19.7 0 Calma 3 Nordeste 0 -- -- 82
2019-06-28 02:00:00 20.4 3 Norte 6 Nordeste 0 -- -- 85
2019-06-28 01:00:00 21 2 Norte 3 Norte 0 -- -- 85
2019-06-28 00:00:00 21.6 3 Norte 4 Norte 0 -- -- 81
2019-06-27 23:00:00 22.8 2 Norte 3 Norte 0 -- -- 74
2019-06-27 22:00:00 24.6 2 Norte 5 Norte 0 -- -- 69
2019-06-27 21:00:00 26.2 5 Nordeste 23 Este 0 -- -- 63
2019-06-27 20:00:00 27.5 14 Este 23 Este 0 -- -- 56
2019-06-27 19:00:00 29 12 Este 31 Este 0 -- -- 56
2019-06-27 18:00:00 28.3 13 Este 31 Este 0 -- -- 70
2019-06-27 17:00:00 31.9 8 Sudeste 28 Sudeste 0 -- -- 41
2019-06-27 16:00:00 31.7 13 Este 26 Este 0 -- -- 43
2019-06-27 15:00:00 31.3 14 Este 29 Este 0 -- -- 43
2019-06-27 14:00:00 32.3 8 Este 28 Este 0 -- -- 39
2019-06-27 13:00:00 31.5 8 Este 20 Este 0 -- -- 41
2019-06-27 12:00:00 30.8 11 Este 23 Este 0 -- -- 43
2019-06-27 11:00:00 31.6 6 Este 12 Este 0 -- -- 40
2019-06-27 10:00:00 29.2 7 Este 15 Este 0 -- -- 50
2019-06-27 09:00:00 27.1 8 Este 19 Nordeste 0 -- -- 62
2019-06-27 08:00:00 22.1 0 Calma 5 Noroeste 0 -- -- 82
2019-06-27 07:00:00 20.2 0 Calma 8 Nordeste 0 -- -- 85
2019-06-27 06:00:00 19.7 2 Norte 6 Nordeste 0 -- -- 88
2019-06-27 05:00:00 20.4 2 Norte 6 Sudoeste 0 -- -- 91
2019-06-27 04:00:00 21.2 0 Calma 5 Sudoeste 0 -- -- 89
2019-06-27 03:00:00 23 2 Sur 16 Este 0 -- -- 86
2019-06-27 02:00:00 23.6 6 Este 19 Este 0 -- -- 83
2019-06-27 01:00:00 23.7 11 Este 24 Este 0 -- -- 84
2019-06-27 00:00:00 23.9 12 Este 24 Sudeste 0 -- -- 83
2019-06-26 23:00:00 24.4 9 Este 18 Este 0 -- -- 79
2019-06-26 22:00:00 24.6 9 Este 23 Este 0 -- -- 79
2019-06-26 21:00:00 25 12 Este 31 Este 0 -- -- 77
2019-06-26 20:00:00 25.9 10 Este 30 Este 0 -- -- 74
2019-06-26 19:00:00 27.4 13 Este 38 Este 0 -- -- 69
2019-06-26 18:00:00 27.8 17 Este 37 Este 0 -- -- 68
2019-06-26 17:00:00 28.1 15 Este 40 Este 0 -- -- 66
2019-06-26 16:00:00 28.7 21 Este 36 Este 0 -- -- 63
2019-06-26 15:00:00 28.7 18 Este 35 Este 0 -- -- 64
2019-06-26 14:00:00 29.8 15 Este 31 Este 0 -- -- 60
2019-06-26 13:00:00 28.9 10 Nordeste 30 Este 0 -- -- 59
2019-06-26 12:00:00 29 12 Nordeste 32 Nordeste 0 -- -- 60
2019-06-26 11:00:00 28.5 5 Nordeste 33 Sudeste 0 -- -- 62
2019-06-26 10:00:00 27.4 14 Sudeste 33 Sudeste 0 -- -- 65
2019-06-26 09:00:00 26.2 6 Sudeste 22 Sur 0 -- -- 72
2019-06-26 08:00:00 24.4 6 Norte 24 Norte 0 -- -- 79
2019-06-26 07:00:00 23.1 10 Nordeste 23 Este 0 -- -- 87
2019-06-26 06:00:00 23.3 13 Este 22 Este 0 -- -- 82
2019-06-26 05:00:00 22.2 3 Este 12 Sudeste 0 -- -- 78
2019-06-26 04:00:00 24.6 5 Sur 26 Sudoeste 0 -- -- 76
2019-06-26 03:00:00 25 19 Sur 27 Sur 0 -- -- 72
2019-06-26 02:00:00 23.2 12 Sudoeste 19 Sudoeste 0 -- -- 85
2019-06-26 01:00:00 23.3 6 Sudeste 24 Este 0 -- -- 87
2019-06-26 00:00:00 23.2 13 Este 26 Este 0 -- -- 89
2019-06-25 23:00:00 23.2 14 Este 30 Nordeste 0 -- -- 92
2019-06-25 22:00:00 23.4 14 Este 27 Este 0 -- -- 91
2019-06-25 21:00:00 24 13 Nordeste 32 Este 0 -- -- 88
2019-06-25 20:00:00 25 15 Nordeste 32 Este 0 -- -- 81
2019-06-25 19:00:00 26.3 14 Nordeste 30 Este 0 -- -- 76
2019-06-25 18:00:00 27.2 10 Nordeste 28 Este 0 -- -- 72
2019-06-25 17:00:00 28.3 15 Este 27 Este 0 -- -- 66
2019-06-25 16:00:00 28.4 12 Este 28 Este 0 -- -- 66
2019-06-25 15:00:00 28.4 10 Este 24 Este 0 -- -- 66
2019-06-25 14:00:00 28.3 11 Este 24 Este 0 -- -- 68
2019-06-25 13:00:00 27.8 8 Este 21 Este 0 -- -- 69
2019-06-25 12:00:00 27.2 8 Este 22 Este 0 -- -- 71
2019-06-25 11:00:00 27.2 3 Sur 10 Sudoeste 0 -- -- 70
2019-06-25 10:00:00 24.7 6 Sur 14 Sudeste 0 -- -- 80
2019-06-25 09:00:00 23.5 8 Sudeste 19 Sur 0 -- -- 86
2019-06-25 08:00:00 22.9 8 Sur 15 Sur 0 -- -- 88
2019-06-25 07:00:00 22.5 10 Sudeste 18 Sur 0 -- -- 91
2019-06-25 06:00:00 22.4 10 Sudeste 17 Sudeste 0 -- -- 92
2019-06-25 05:00:00 22 4 Este 11 Este 0 -- -- 92
2019-06-25 04:00:00 21.9 5 Sur 7 Sudeste 0 -- -- 95
2019-06-25 03:00:00 20.7 3 Este 5 Sudeste 0 -- -- 93
2019-06-25 02:00:00 21.2 3 Norte 11 Sur 0 -- -- 91
2019-06-25 01:00:00 22.8 9 Sur 13 Sur 0 -- -- 90
2019-06-25 00:00:00 23 12 Sur 22 Sur 0 -- -- 90
2019-06-24 23:00:00 23.4 14 Sur 23 Sur 0 -- -- 89
2019-06-24 22:00:00 23.5 8 Sudeste 25 Nordeste 0 -- -- 88
2019-06-24 21:00:00 23.3 7 Este 25 Nordeste 0 -- -- 89
2019-06-24 20:00:00 24.3 11 Nordeste 30 Nordeste 0 -- -- 84
2019-06-24 19:00:00 25.7 14 Nordeste 28 Este 0 -- -- 78
2019-06-24 18:00:00 26.5 16 Nordeste 31 Este 0 -- -- 74
2019-06-24 17:00:00 27.2 13 Nordeste 29 Nordeste 0 -- -- 72
2019-06-24 16:00:00 26.9 15 Nordeste 35 Nordeste 0 -- -- 71
2019-06-24 15:00:00 27.1 10 Sudeste 40 Sudeste 0 -- -- 71
2019-06-24 14:00:00 27.6 18 Este 37 Sudeste 0 -- -- 66
2019-06-24 13:00:00 27.5 19 Sudeste 36 Sur 0 -- -- 63
2019-06-24 12:00:00 26.8 19 Sudeste 35 Sudeste 0 -- -- 64
2019-06-24 11:00:00 26.3 14 Sudeste 25 Sudeste 0 -- -- 67
2019-06-24 10:00:00 25.2 14 Este 28 Sudeste 0 -- -- 70
2019-06-24 09:00:00 24.2 14 Sudeste 28 Sudeste 0 -- -- 73
2019-06-24 08:00:00 22.5 4 Noroeste 18 Nordeste 0 -- -- 86
2019-06-24 07:00:00 20.9 3 Noroeste 9 Sur 0 -- -- 88
2019-06-24 06:00:00 20.2 0 Calma 7 Nordeste 0 -- -- 79
2019-06-24 05:00:00 20.5 3 Nordeste 7 Este 0 -- -- 78
2019-06-24 04:00:00 21.9 5 Este 14 Este 0 -- -- 73
2019-06-24 03:00:00 19.9 5 Este 12 Este 0 -- -- 84
2019-06-24 02:00:00 21.6 0 Calma 16 Este 0 -- -- 78
2019-06-24 01:00:00 22.4 3 Nordeste 17 Nordeste 0 -- -- 73
2019-06-24 00:00:00 23.1 4 Este 18 Este 0 -- -- 72
2019-06-23 23:00:00 24 8 Este 19 Este 0 -- -- 58
2019-06-23 22:00:00 23.5 6 Sudeste 16 Nordeste 0 -- -- 66
2019-06-23 21:00:00 23.3 5 Norte 22 Nordeste 0 -- -- 73
2019-06-23 20:00:00 24.6 9 Nordeste 24 Nordeste 0 -- -- 66
2019-06-23 19:00:00 26 11 Nordeste 30 Norte 0 -- -- 60
2019-06-23 18:00:00 26.8 8 Nordeste 24 Nordeste 0 -- -- 59
2019-06-23 17:00:00 26.3 12 Nordeste 31 Este 0 -- -- 63
2019-06-23 16:00:00 27 10 Nordeste 31 Este 0 -- -- 62
2019-06-23 15:00:00 26.4 14 Nordeste 31 Este 0 -- -- 62
2019-06-23 14:00:00 27.3 13 Este 30 Este 0 -- -- 56
2019-06-23 13:00:00 28.2 9 Este 23 Nordeste 0 -- -- 51
2019-06-23 12:00:00 28 6 Este 14 Sudeste 0 -- -- 53
2019-06-23 11:00:00 27.6 5 Sudeste 11 Este 0 -- -- 58
2019-06-23 10:00:00 24.8 5 Este 15 Este 0 -- -- 77
2019-06-23 09:00:00 22.7 3 Sur 6 Sudoeste 0 -- -- 80
2019-06-23 08:00:00 18.4 0 Calma 4 Norte 0 -- -- 93
2019-06-23 07:00:00 16.1 0 Calma 3 Nordeste 0 -- -- 94
2019-06-23 06:00:00 16.2 2 Norte 3 Norte 0 -- -- 94
2019-06-23 05:00:00 16.8 0 Calma 5 Nordeste 0 -- -- 93
2019-06-23 04:00:00 17.1 0 Calma 4 Este 0 -- -- 92
2019-06-23 03:00:00 17.4 0 Calma 4 Norte 0 -- -- 92
2019-06-23 02:00:00 17.6 3 Norte 3 Norte 0 -- -- 91
2019-06-23 01:00:00 17.8 0 Calma 3 Noroeste 0 -- -- 86
2019-06-23 00:00:00 18.3 2 Norte 3 Norte 0 -- -- 83
2019-06-22 23:00:00 19.4 2 Norte 8 Este 0 -- -- 77
2019-06-22 22:00:00 20.6 0 Calma 13 Este 0 -- -- 74
2019-06-22 21:00:00 22.1 6 Este 18 Este 0 -- -- 73
2019-06-22 20:00:00 23.4 10 Este 22 Este 0 -- -- 68
2019-06-22 19:00:00 24.8 9 Este 22 Este 0 -- -- 66
2019-06-22 18:00:00 24.2 6 Nordeste 19 Este 0 -- -- 69
2019-06-22 17:00:00 24.7 7 Este 20 Sudeste 0 -- -- 70
2019-06-22 16:00:00 23.9 8 Sudeste 21 Este 0 -- -- 70
2019-06-22 15:00:00 25.2 11 Sudeste 26 Sudeste 0 -- -- 66
2019-06-22 14:00:00 24.9 14 Sudeste 30 Sudeste 0 -- -- 64
2019-06-22 13:00:00 24.9 11 Sudeste 23 Sur 0 -- -- 63
2019-06-22 12:00:00 24.6 10 Sudeste 29 Sudeste 0 -- -- 64
2019-06-22 11:00:00 24.9 8 Norte 37 Noroeste 0 -- -- 58
2019-06-22 10:00:00 24.7 6 Nordeste 24 Este 0 -- -- 58
2019-06-22 09:00:00 23.2 8 Este 26 Este 0 -- -- 65
2019-06-22 08:00:00 21.3 6 Nordeste 15 Nordeste 0 -- -- 73
2019-06-22 07:00:00 19.3 5 Norte 15 Nordeste 0 -- -- 83
2019-06-22 06:00:00 19.3 5 Norte 13 Noroeste 0 -- -- 85
2019-06-22 05:00:00 19.9 3 Norte 13 Nordeste 0 -- -- 87
2019-06-22 04:00:00 20.1 0 Calma 10 Nordeste 0 -- -- 87
2019-06-22 03:00:00 20.2 3 Nordeste 14 Este 0 -- -- 87
2019-06-22 02:00:00 20 6 Nordeste 16 Nordeste 0 -- -- 90
2019-06-22 01:00:00 20 2 Norte 10 Nordeste 0 -- -- 90
2019-06-22 00:00:00 20.2 4 Norte 9 Nordeste 0 -- -- 89
2019-06-21 23:00:00 20.5 5 Norte 11 Norte 0 -- -- 88
2019-06-21 22:00:00 20.7 4 Norte 10 Norte 0 -- -- 82
2019-06-21 21:00:00 21.8 3 Norte 11 Norte 0 -- -- 81
2019-06-21 20:00:00 22.6 3 Norte 20 Nordeste 0 -- -- 80
2019-06-21 19:00:00 22.6 6 Norte 20 Norte 0 -- -- 80
2019-06-21 18:00:00 23.6 8 Norte 21 Norte 0 -- -- 78
2019-06-21 17:00:00 24.7 5 Norte 20 Noroeste 0 -- -- 75
2019-06-21 16:00:00 24.8 7 Norte 17 Norte 0 -- -- 72
2019-06-21 15:00:00 26.2 6 Norte 17 Norte 0 -- -- 68
2019-06-21 14:00:00 27 8 Norte 23 Norte 0 -- -- 66
2019-06-21 13:00:00 26.7 8 Este 18 Este 0 -- -- 70
2019-06-21 12:00:00 25.3 3 Nordeste 8 Sudeste 0 -- -- 73
2019-06-21 11:00:00 22.2 3 Oeste 15 Este 0 -- -- 85
2019-06-21 10:00:00 22.2 5 Este 16 Este 0 -- -- 85
2019-06-21 09:00:00 22.2 4 Sur 17 Sudeste 0 -- -- 86
2019-06-21 08:00:00 22.1 8 Sudeste 17 Sur 0 -- -- 86
2019-06-21 07:00:00 21.4 5 Nordeste 14 Nordeste 0 -- -- 85
2019-06-21 06:00:00 20.8 4 Este 14 Nordeste 0 -- -- 95
2019-06-21 05:00:00 19.9 3 Nordeste 11 Nordeste 0 -- -- 95
2019-06-21 04:00:00 20 2 Norte 9 Sur 0 -- -- 92
2019-06-21 03:00:00 21.2 7 Sur 12 Sudoeste 0 -- -- 94
2019-06-21 02:00:00 20.1 0 Calma 4 Sudoeste 0 -- -- 92
2019-06-21 01:00:00 20.4 2 Norte 7 Nordeste 0 -- -- 90
2019-06-21 00:00:00 21 0 Calma 11 Nordeste 0 -- -- 88
2019-06-20 23:00:00 21.4 4 Nordeste 15 Norte 0 -- -- 88
2019-06-20 22:00:00 21.8 8 Norte 18 Nordeste 0 -- -- 87
2019-06-20 21:00:00 22.7 8 Norte 19 Norte 0 -- -- 82
2019-06-20 20:00:00 23.8 8 Norte 20 Norte 0 -- -- 79
2019-06-20 19:00:00 25.7 8 Norte 21 Este 0 -- -- 71
2019-06-20 18:00:00 25.8 15 Este 32 Este 0 -- -- 68
2019-06-20 17:00:00 26.5 15 Este 31 Este 0 -- -- 64
2019-06-20 16:00:00 27.5 13 Nordeste 27 Sur 0 -- -- 56
2019-06-20 15:00:00 26.8 12 Este 35 Nordeste 0 -- -- 65
2019-06-20 14:00:00 25.8 12 Nordeste 34 Este 0 -- -- 71
2019-06-20 13:00:00 25.8 9 Nordeste 22 Norte 0 -- -- 72
2019-06-20 12:00:00 25.2 9 Este 21 Sudeste 0 -- -- 73
2019-06-20 11:00:00 24.9 8 Norte 23 Norte 0 -- -- 74
2019-06-20 10:00:00 24.9 7 Nordeste 15 Nordeste 0 -- -- 73
2019-06-20 09:00:00 23.2 6 Nordeste 21 Noroeste 0 -- -- 81
2019-06-20 08:00:00 21.5 8 Norte 18 Norte 0 -- -- 88
2019-06-20 07:00:00 19.2 0 Calma 6 Norte 0 -- -- 91
2019-06-20 06:00:00 20.2 2 Norte 10 Sudoeste 0 -- -- 90
2019-06-20 05:00:00 20.8 5 Sur 9 Sur 0 -- -- 91
2019-06-20 04:00:00 20.2 0 Calma 9 Sur 0 -- -- 92
2019-06-20 03:00:00 19.8 3 Sur 9 Sur 0 -- -- 95
2019-06-20 02:00:00 18.9 0 Calma 5 Norte 0 -- -- 93
2019-06-20 01:00:00 18.9 3 Nordeste 6 Este 0 -- -- 91
2019-06-20 00:00:00 19.7 0 Calma 8 Norte 0 -- -- 88